sensor_id;sensor_type;location;lat;lon;timestamp;P1;durP1;ratioP1;P2;durP2;ratioP2
78312;SDS011;67568;47.438;21.408;2023-02-26T00:01:29;12.60;;;4.17;;
78312;SDS011;67568;47.438;21.408;2023-02-26T00:03:59;8.02;;;3.65;;
78312;SDS011;67568;47.438;21.408;2023-02-26T00:06:27;9.13;;;4.10;;
78312;SDS011;67568;47.438;21.408;2023-02-26T00:08:57;8.48;;;3.90;;
78312;SDS011;67568;47.438;21.408;2023-02-26T00:11:23;10.45;;;4.47;;
78312;SDS011;67568;47.438;21.408;2023-02-26T00:13:54;8.97;;;4.33;;
78312;SDS011;67568;47.438;21.408;2023-02-26T00:16:30;8.95;;;3.97;;
78312;SDS011;67568;47.438;21.408;2023-02-26T00:19:09;8.48;;;4.03;;
78312;SDS011;67568;47.438;21.408;2023-02-26T00:21:38;10.02;;;4.03;;
78312;SDS011;67568;47.438;21.408;2023-02-26T00:24:06;8.15;;;3.65;;
78312;SDS011;67568;47.438;21.408;2023-02-26T00:26:33;10.43;;;3.90;;
78312;SDS011;67568;47.438;21.408;2023-02-26T00:29:01;9.05;;;4.20;;
78312;SDS011;67568;47.438;21.408;2023-02-26T00:31:29;8.27;;;4.00;;
78312;SDS011;67568;47.438;21.408;2023-02-26T00:33:56;8.73;;;4.03;;
78312;SDS011;67568;47.438;21.408;2023-02-26T00:39:14;9.17;;;4.17;;
78312;SDS011;67568;47.438;21.408;2023-02-26T00:42:06;9.30;;;4.13;;
78312;SDS011;67568;47.438;21.408;2023-02-26T00:44:33;8.90;;;4.65;;
78312;SDS011;67568;47.438;21.408;2023-02-26T00:47:16;9.95;;;4.18;;
78312;SDS011;67568;47.438;21.408;2023-02-26T00:55:09;10.27;;;5.03;;
78312;SDS011;67568;47.438;21.408;2023-02-26T00:57:36;10.30;;;4.30;;
78312;SDS011;67568;47.438;21.408;2023-02-26T01:00:05;8.20;;;3.97;;
78312;SDS011;67568;47.438;21.408;2023-02-26T01:02:38;8.57;;;4.10;;
78312;SDS011;67568;47.438;21.408;2023-02-26T01:05:06;8.17;;;4.17;;
78312;SDS011;67568;47.438;21.408;2023-02-26T01:07:41;10.52;;;4.45;;
78312;SDS011;67568;47.438;21.408;2023-02-26T01:10:14;9.63;;;4.72;;
78312;SDS011;67568;47.438;21.408;2023-02-26T01:12:41;8.98;;;4.28;;
78312;SDS011;67568;47.438;21.408;2023-02-26T01:15:14;9.02;;;4.43;;
78312;SDS011;67568;47.438;21.408;2023-02-26T01:17:50;8.57;;;3.90;;
78312;SDS011;67568;47.438;21.408;2023-02-26T01:20:25;8.98;;;4.40;;
78312;SDS011;67568;47.438;21.408;2023-02-26T01:22:59;8.45;;;4.30;;
78312;SDS011;67568;47.438;21.408;2023-02-26T01:25:40;9.25;;;4.30;;
78312;SDS011;67568;47.438;21.408;2023-02-26T01:28:28;8.93;;;3.88;;
78312;SDS011;67568;47.438;21.408;2023-02-26T01:30:58;9.70;;;4.43;;
78312;SDS011;67568;47.438;21.408;2023-02-26T01:33:39;9.45;;;4.60;;
78312;SDS011;67568;47.438;21.408;2023-02-26T01:36:23;12.00;;;4.35;;
78312;SDS011;67568;47.438;21.408;2023-02-26T01:41:38;10.13;;;4.40;;
78312;SDS011;67568;47.438;21.408;2023-02-26T01:44:12;10.03;;;4.33;;
78312;SDS011;67568;47.438;21.408;2023-02-26T01:46:47;9.90;;;3.97;;
78312;SDS011;67568;47.438;21.408;2023-02-26T01:49:32;8.65;;;4.32;;
78312;SDS011;67568;47.438;21.408;2023-02-26T01:52:00;10.68;;;4.75;;
78312;SDS011;67568;47.438;21.408;2023-02-26T01:54:32;10.45;;;4.60;;
78312;SDS011;67568;47.438;21.408;2023-02-26T01:57:16;10.57;;;4.60;;
78312;SDS011;67568;47.438;21.408;2023-02-26T01:59:46;10.93;;;5.20;;
78312;SDS011;67568;47.438;21.408;2023-02-26T02:02:16;10.52;;;5.00;;
78312;SDS011;67568;47.438;21.408;2023-02-26T02:04:45;12.48;;;5.32;;
78312;SDS011;67568;47.438;21.408;2023-02-26T02:07:14;9.77;;;4.72;;
78312;SDS011;67568;47.438;21.408;2023-02-26T02:09:41;9.77;;;4.80;;
78312;SDS011;67568;47.438;21.408;2023-02-26T02:15:10;10.73;;;5.60;;
78312;SDS011;67568;47.438;21.408;2023-02-26T02:26:43;9.45;;;4.53;;
78312;SDS011;67568;47.438;21.408;2023-02-26T02:30:16;9.88;;;5.22;;
78312;SDS011;67568;47.438;21.408;2023-02-26T02:32:35;9.82;;;4.78;;
78312;SDS011;67568;47.438;21.408;2023-02-26T02:35:21;10.07;;;4.90;;
78312;SDS011;67568;47.438;21.408;2023-02-26T02:38:08;9.30;;;4.60;;
78312;SDS011;67568;47.438;21.408;2023-02-26T02:40:47;10.43;;;5.13;;
78312;SDS011;67568;47.438;21.408;2023-02-26T02:43:21;10.20;;;4.82;;
78312;SDS011;67568;47.438;21.408;2023-02-26T02:45:57;9.80;;;4.88;;
78312;SDS011;67568;47.438;21.408;2023-02-26T02:48:41;9.63;;;4.95;;
78312;SDS011;67568;47.438;21.408;2023-02-26T02:51:20;8.80;;;4.37;;
78312;SDS011;67568;47.438;21.408;2023-02-26T02:53:56;10.63;;;4.90;;
78312;SDS011;67568;47.438;21.408;2023-02-26T02:56:33;8.63;;;4.70;;
78312;SDS011;67568;47.438;21.408;2023-02-26T03:01:42;10.07;;;4.88;;
78312;SDS011;67568;47.438;21.408;2023-02-26T03:04:14;13.00;;;5.17;;
78312;SDS011;67568;47.438;21.408;2023-02-26T03:06:42;11.85;;;5.00;;
78312;SDS011;67568;47.438;21.408;2023-02-26T03:09:09;9.20;;;4.93;;
78312;SDS011;67568;47.438;21.408;2023-02-26T03:11:40;9.93;;;4.95;;
78312;SDS011;67568;47.438;21.408;2023-02-26T03:14:07;11.18;;;5.45;;
78312;SDS011;67568;47.438;21.408;2023-02-26T03:16:48;10.13;;;4.97;;
78312;SDS011;67568;47.438;21.408;2023-02-26T03:19:35;8.68;;;4.68;;
78312;SDS011;67568;47.438;21.408;2023-02-26T03:25:07;9.50;;;4.93;;
78312;SDS011;67568;47.438;21.408;2023-02-26T03:30:33;11.27;;;4.70;;
78312;SDS011;67568;47.438;21.408;2023-02-26T03:33:12;9.80;;;4.45;;
78312;SDS011;67568;47.438;21.408;2023-02-26T03:35:47;9.13;;;4.70;;
78312;SDS011;67568;47.438;21.408;2023-02-26T03:41:19;7.75;;;4.30;;
78312;SDS011;67568;47.438;21.408;2023-02-26T03:44:00;9.30;;;4.53;;
78312;SDS011;67568;47.438;21.408;2023-02-26T03:46:47;10.18;;;4.13;;
78312;SDS011;67568;47.438;21.408;2023-02-26T03:49:26;10.35;;;5.25;;
78312;SDS011;67568;47.438;21.408;2023-02-26T03:52:05;8.30;;;4.05;;
78312;SDS011;67568;47.438;21.408;2023-02-26T03:54:48;7.97;;;4.20;;
78312;SDS011;67568;47.438;21.408;2023-02-26T03:57:23;10.13;;;4.53;;
78312;SDS011;67568;47.438;21.408;2023-02-26T03:59:52;8.95;;;4.43;;
78312;SDS011;67568;47.438;21.408;2023-02-26T04:02:22;9.52;;;4.30;;
78312;SDS011;67568;47.438;21.408;2023-02-26T04:04:55;10.30;;;4.80;;
78312;SDS011;67568;47.438;21.408;2023-02-26T04:07:26;9.52;;;4.25;;
78312;SDS011;67568;47.438;21.408;2023-02-26T04:09:54;7.77;;;3.90;;
78312;SDS011;67568;47.438;21.408;2023-02-26T04:12:22;9.60;;;4.43;;
78312;SDS011;67568;47.438;21.408;2023-02-26T04:14:50;8.95;;;4.15;;
78312;SDS011;67568;47.438;21.408;2023-02-26T04:17:17;8.25;;;3.88;;
78312;SDS011;67568;47.438;21.408;2023-02-26T04:19:44;9.25;;;4.03;;
78312;SDS011;67568;47.438;21.408;2023-02-26T04:22:11;8.70;;;4.23;;
78312;SDS011;67568;47.438;21.408;2023-02-26T04:24:41;8.90;;;4.38;;
78312;SDS011;67568;47.438;21.408;2023-02-26T04:27:07;9.05;;;4.00;;
78312;SDS011;67568;47.438;21.408;2023-02-26T04:29:34;7.82;;;3.63;;
78312;SDS011;67568;47.438;21.408;2023-02-26T04:32:01;13.25;;;8.25;;
78312;SDS011;67568;47.438;21.408;2023-02-26T04:34:28;20.10;;;12.40;;
78312;SDS011;67568;47.438;21.408;2023-02-26T04:36:57;14.25;;;7.63;;
78312;SDS011;67568;47.438;21.408;2023-02-26T04:39:26;11.18;;;6.18;;
78312;SDS011;67568;47.438;21.408;2023-02-26T04:41:52;12.50;;;7.22;;
78312;SDS011;67568;47.438;21.408;2023-02-26T04:44:19;11.88;;;6.20;;
78312;SDS011;67568;47.438;21.408;2023-02-26T04:46:45;10.07;;;4.87;;
78312;SDS011;67568;47.438;21.408;2023-02-26T04:49:12;10.07;;;4.53;;
78312;SDS011;67568;47.438;21.408;2023-02-26T04:51:39;10.40;;;4.68;;
78312;SDS011;67568;47.438;21.408;2023-02-26T04:54:05;9.63;;;4.45;;
78312;SDS011;67568;47.438;21.408;2023-02-26T04:56:32;8.13;;;3.83;;
78312;SDS011;67568;47.438;21.408;2023-02-26T04:59:02;8.40;;;3.47;;
78312;SDS011;67568;47.438;21.408;2023-02-26T05:01:29;8.88;;;4.22;;
78312;SDS011;67568;47.438;21.408;2023-02-26T05:03:55;9.23;;;4.07;;
78312;SDS011;67568;47.438;21.408;2023-02-26T05:06:22;9.02;;;3.95;;
78312;SDS011;67568;47.438;21.408;2023-02-26T05:08:49;9.80;;;3.58;;
78312;SDS011;67568;47.438;21.408;2023-02-26T05:11:16;7.30;;;3.67;;
78312;SDS011;67568;47.438;21.408;2023-02-26T05:13:42;7.72;;;3.95;;
78312;SDS011;67568;47.438;21.408;2023-02-26T05:16:09;10.57;;;3.60;;
78312;SDS011;67568;47.438;21.408;2023-02-26T05:18:38;9.15;;;3.83;;
78312;SDS011;67568;47.438;21.408;2023-02-26T05:21:08;8.38;;;3.72;;
78312;SDS011;67568;47.438;21.408;2023-02-26T05:23:34;10.37;;;4.40;;
78312;SDS011;67568;47.438;21.408;2023-02-26T05:26:01;8.93;;;4.00;;
78312;SDS011;67568;47.438;21.408;2023-02-26T05:28:28;11.52;;;3.95;;
78312;SDS011;67568;47.438;21.408;2023-02-26T05:30:55;9.27;;;3.85;;
78312;SDS011;67568;47.438;21.408;2023-02-26T05:33:25;7.05;;;3.70;;
78312;SDS011;67568;47.438;21.408;2023-02-26T05:35:52;8.43;;;4.07;;
78312;SDS011;67568;47.438;21.408;2023-02-26T05:38:19;9.40;;;3.88;;
78312;SDS011;67568;47.438;21.408;2023-02-26T05:40:45;9.80;;;4.38;;
78312;SDS011;67568;47.438;21.408;2023-02-26T05:43:12;8.98;;;4.65;;
78312;SDS011;67568;47.438;21.408;2023-02-26T05:45:39;10.23;;;4.93;;
78312;SDS011;67568;47.438;21.408;2023-02-26T05:48:05;8.77;;;4.30;;
78312;SDS011;67568;47.438;21.408;2023-02-26T05:50:32;12.32;;;4.60;;
78312;SDS011;67568;47.438;21.408;2023-02-26T05:52:58;7.68;;;3.83;;
78312;SDS011;67568;47.438;21.408;2023-02-26T05:55:25;9.52;;;4.53;;
78312;SDS011;67568;47.438;21.408;2023-02-26T05:57:52;10.68;;;5.13;;
78312;SDS011;67568;47.438;21.408;2023-02-26T06:00:18;12.83;;;6.07;;
78312;SDS011;67568;47.438;21.408;2023-02-26T06:02:45;22.38;;;8.15;;
78312;SDS011;67568;47.438;21.408;2023-02-26T06:05:12;13.73;;;5.90;;
78312;SDS011;67568;47.438;21.408;2023-02-26T06:07:39;8.52;;;4.15;;
78312;SDS011;67568;47.438;21.408;2023-02-26T06:10:06;10.07;;;4.30;;
78312;SDS011;67568;47.438;21.408;2023-02-26T06:12:33;7.87;;;4.03;;
78312;SDS011;67568;47.438;21.408;2023-02-26T06:15:00;9.65;;;3.65;;
78312;SDS011;67568;47.438;21.408;2023-02-26T06:17:27;8.88;;;3.75;;
78312;SDS011;67568;47.438;21.408;2023-02-26T06:19:54;9.45;;;4.70;;
78312;SDS011;67568;47.438;21.408;2023-02-26T06:22:21;10.25;;;4.55;;
78312;SDS011;67568;47.438;21.408;2023-02-26T06:24:48;8.57;;;3.60;;
78312;SDS011;67568;47.438;21.408;2023-02-26T06:27:14;10.88;;;3.90;;
78312;SDS011;67568;47.438;21.408;2023-02-26T06:29:41;8.45;;;3.70;;
78312;SDS011;67568;47.438;21.408;2023-02-26T06:32:08;7.80;;;3.80;;
78312;SDS011;67568;47.438;21.408;2023-02-26T06:34:35;9.15;;;4.45;;
78312;SDS011;67568;47.438;21.408;2023-02-26T06:37:01;9.10;;;4.27;;
78312;SDS011;67568;47.438;21.408;2023-02-26T06:39:28;8.68;;;4.18;;
78312;SDS011;67568;47.438;21.408;2023-02-26T06:41:55;10.13;;;4.35;;
78312;SDS011;67568;47.438;21.408;2023-02-26T06:44:23;10.23;;;4.30;;
78312;SDS011;67568;47.438;21.408;2023-02-26T06:46:50;8.65;;;4.00;;
78312;SDS011;67568;47.438;21.408;2023-02-26T06:49:16;9.57;;;4.00;;
78312;SDS011;67568;47.438;21.408;2023-02-26T06:51:43;9.25;;;4.45;;
78312;SDS011;67568;47.438;21.408;2023-02-26T06:54:11;12.15;;;5.30;;
78312;SDS011;67568;47.438;21.408;2023-02-26T06:56:37;12.55;;;5.35;;
78312;SDS011;67568;47.438;21.408;2023-02-26T06:59:04;13.98;;;6.40;;
78312;SDS011;67568;47.438;21.408;2023-02-26T07:01:31;12.83;;;5.23;;
78312;SDS011;67568;47.438;21.408;2023-02-26T07:03:58;9.70;;;4.57;;
78312;SDS011;67568;47.438;21.408;2023-02-26T07:06:24;13.20;;;7.05;;
78312;SDS011;67568;47.438;21.408;2023-02-26T07:08:53;10.23;;;6.47;;
78312;SDS011;67568;47.438;21.408;2023-02-26T07:11:21;11.68;;;5.88;;
78312;SDS011;67568;47.438;21.408;2023-02-26T07:13:48;12.30;;;7.93;;
78312;SDS011;67568;47.438;21.408;2023-02-26T07:16:15;10.07;;;4.90;;
78312;SDS011;67568;47.438;21.408;2023-02-26T07:18:43;9.93;;;4.50;;
78312;SDS011;67568;47.438;21.408;2023-02-26T07:21:10;10.73;;;4.63;;
78312;SDS011;67568;47.438;21.408;2023-02-26T07:23:39;10.05;;;4.45;;
78312;SDS011;67568;47.438;21.408;2023-02-26T07:26:06;7.97;;;3.93;;
78312;SDS011;67568;47.438;21.408;2023-02-26T07:28:33;7.88;;;3.97;;
78312;SDS011;67568;47.438;21.408;2023-02-26T07:31:00;8.93;;;3.90;;
78312;SDS011;67568;47.438;21.408;2023-02-26T07:33:27;7.13;;;3.22;;
78312;SDS011;67568;47.438;21.408;2023-02-26T07:35:53;7.93;;;3.55;;
78312;SDS011;67568;47.438;21.408;2023-02-26T07:38:20;6.73;;;3.20;;
78312;SDS011;67568;47.438;21.408;2023-02-26T07:40:47;8.70;;;3.13;;
78312;SDS011;67568;47.438;21.408;2023-02-26T07:43:13;7.40;;;3.60;;
78312;SDS011;67568;47.438;21.408;2023-02-26T07:45:40;9.15;;;3.47;;
78312;SDS011;67568;47.438;21.408;2023-02-26T07:48:07;7.75;;;3.33;;
78312;SDS011;67568;47.438;21.408;2023-02-26T07:50:33;8.13;;;3.63;;
78312;SDS011;67568;47.438;21.408;2023-02-26T07:53:00;7.35;;;3.22;;
78312;SDS011;67568;47.438;21.408;2023-02-26T07:55:27;8.43;;;3.78;;
78312;SDS011;67568;47.438;21.408;2023-02-26T07:57:53;7.53;;;3.38;;
78312;SDS011;67568;47.438;21.408;2023-02-26T08:00:20;10.82;;;3.80;;
78312;SDS011;67568;47.438;21.408;2023-02-26T08:02:47;7.73;;;3.43;;
78312;SDS011;67568;47.438;21.408;2023-02-26T08:05:13;9.20;;;3.85;;
78312;SDS011;67568;47.438;21.408;2023-02-26T08:07:40;8.55;;;3.97;;
78312;SDS011;67568;47.438;21.408;2023-02-26T08:10:07;8.98;;;4.03;;
78312;SDS011;67568;47.438;21.408;2023-02-26T08:12:35;10.80;;;4.30;;
78312;SDS011;67568;47.438;21.408;2023-02-26T08:15:04;8.30;;;3.87;;
78312;SDS011;67568;47.438;21.408;2023-02-26T08:17:31;7.22;;;3.88;;
78312;SDS011;67568;47.438;21.408;2023-02-26T08:19:57;9.73;;;4.50;;
78312;SDS011;67568;47.438;21.408;2023-02-26T08:22:24;9.30;;;4.75;;
78312;SDS011;67568;47.438;21.408;2023-02-26T08:24:51;10.93;;;4.95;;
78312;SDS011;67568;47.438;21.408;2023-02-26T08:27:18;9.57;;;4.33;;
78312;SDS011;67568;47.438;21.408;2023-02-26T08:29:44;9.45;;;3.92;;
78312;SDS011;67568;47.438;21.408;2023-02-26T08:32:12;9.20;;;4.60;;
78312;SDS011;67568;47.438;21.408;2023-02-26T08:34:39;9.65;;;4.45;;
78312;SDS011;67568;47.438;21.408;2023-02-26T08:37:05;8.35;;;4.10;;
78312;SDS011;67568;47.438;21.408;2023-02-26T08:39:32;8.77;;;3.90;;
78312;SDS011;67568;47.438;21.408;2023-02-26T08:41:59;8.27;;;3.60;;
78312;SDS011;67568;47.438;21.408;2023-02-26T08:44:25;7.50;;;3.63;;
78312;SDS011;67568;47.438;21.408;2023-02-26T08:46:52;8.57;;;4.03;;
78312;SDS011;67568;47.438;21.408;2023-02-26T08:49:19;8.77;;;3.67;;
78312;SDS011;67568;47.438;21.408;2023-02-26T08:51:45;9.50;;;4.00;;
78312;SDS011;67568;47.438;21.408;2023-02-26T08:54:12;9.02;;;4.18;;
78312;SDS011;67568;47.438;21.408;2023-02-26T08:56:39;8.52;;;3.75;;
78312;SDS011;67568;47.438;21.408;2023-02-26T08:59:06;6.30;;;3.03;;
78312;SDS011;67568;47.438;21.408;2023-02-26T09:01:32;8.38;;;3.50;;
78312;SDS011;67568;47.438;21.408;2023-02-26T09:03:59;7.20;;;3.50;;
78312;SDS011;67568;47.438;21.408;2023-02-26T09:06:27;8.45;;;3.95;;
78312;SDS011;67568;47.438;21.408;2023-02-26T09:08:54;8.90;;;3.95;;
78312;SDS011;67568;47.438;21.408;2023-02-26T09:11:20;8.93;;;4.00;;
78312;SDS011;67568;47.438;21.408;2023-02-26T09:13:47;8.88;;;3.45;;
78312;SDS011;67568;47.438;21.408;2023-02-26T09:16:14;8.47;;;4.30;;
78312;SDS011;67568;47.438;21.408;2023-02-26T09:18:41;8.30;;;3.60;;
78312;SDS011;67568;47.438;21.408;2023-02-26T09:21:07;8.85;;;3.90;;
78312;SDS011;67568;47.438;21.408;2023-02-26T09:23:34;7.30;;;3.13;;
78312;SDS011;67568;47.438;21.408;2023-02-26T09:26:00;8.52;;;3.83;;
78312;SDS011;67568;47.438;21.408;2023-02-26T09:28:27;7.73;;;3.63;;
78312;SDS011;67568;47.438;21.408;2023-02-26T09:30:54;7.60;;;3.78;;
78312;SDS011;67568;47.438;21.408;2023-02-26T09:33:21;7.65;;;3.55;;
78312;SDS011;67568;47.438;21.408;2023-02-26T09:35:49;8.45;;;3.47;;
78312;SDS011;67568;47.438;21.408;2023-02-26T09:38:16;7.18;;;3.42;;
78312;SDS011;67568;47.438;21.408;2023-02-26T09:46:25;7.35;;;3.42;;
78312;SDS011;67568;47.438;21.408;2023-02-26T09:48:58;7.32;;;3.53;;
78312;SDS011;67568;47.438;21.408;2023-02-26T09:51:52;7.75;;;3.50;;
78312;SDS011;67568;47.438;21.408;2023-02-26T09:54:23;10.03;;;4.30;;
78312;SDS011;67568;47.438;21.408;2023-02-26T09:56:54;8.57;;;3.55;;
78312;SDS011;67568;47.438;21.408;2023-02-26T09:59:23;8.88;;;4.22;;
78312;SDS011;67568;47.438;21.408;2023-02-26T10:01:58;9.32;;;4.10;;
78312;SDS011;67568;47.438;21.408;2023-02-26T10:07:23;8.43;;;4.00;;
78312;SDS011;67568;47.438;21.408;2023-02-26T10:10:10;9.77;;;4.28;;
78312;SDS011;67568;47.438;21.408;2023-02-26T10:12:46;8.38;;;4.13;;
78312;SDS011;67568;47.438;21.408;2023-02-26T10:15:16;7.82;;;3.78;;
78312;SDS011;67568;47.438;21.408;2023-02-26T10:20:22;9.93;;;4.27;;
78312;SDS011;67568;47.438;21.408;2023-02-26T10:25:47;7.75;;;3.63;;
78312;SDS011;67568;47.438;21.408;2023-02-26T10:37:20;7.40;;;3.70;;
78312;SDS011;67568;47.438;21.408;2023-02-26T10:39:51;11.20;;;4.57;;
78312;SDS011;67568;47.438;21.408;2023-02-26T10:42:25;9.60;;;4.90;;
78312;SDS011;67568;47.438;21.408;2023-02-26T10:50:40;7.85;;;3.65;;
78312;SDS011;67568;47.438;21.408;2023-02-26T10:53:19;9.60;;;4.00;;
78312;SDS011;67568;47.438;21.408;2023-02-26T10:55:51;11.80;;;4.63;;
78312;SDS011;67568;47.438;21.408;2023-02-26T10:58:27;8.70;;;3.58;;
78312;SDS011;67568;47.438;21.408;2023-02-26T11:00:54;8.87;;;3.70;;
78312;SDS011;67568;47.438;21.408;2023-02-26T11:03:32;7.03;;;3.53;;
78312;SDS011;67568;47.438;21.408;2023-02-26T11:06:01;9.05;;;4.18;;
78312;SDS011;67568;47.438;21.408;2023-02-26T11:08:32;8.30;;;3.90;;
78312;SDS011;67568;47.438;21.408;2023-02-26T11:11:05;8.63;;;4.20;;
78312;SDS011;67568;47.438;21.408;2023-02-26T11:13:33;7.47;;;3.67;;
78312;SDS011;67568;47.438;21.408;2023-02-26T11:16:24;6.53;;;3.13;;
78312;SDS011;67568;47.438;21.408;2023-02-26T11:18:53;7.88;;;3.88;;
78312;SDS011;67568;47.438;21.408;2023-02-26T11:21:22;7.15;;;3.40;;
78312;SDS011;67568;47.438;21.408;2023-02-26T11:24:13;8.80;;;3.60;;
78312;SDS011;67568;47.438;21.408;2023-02-26T11:26:43;9.33;;;4.40;;
78312;SDS011;67568;47.438;21.408;2023-02-26T11:29:17;8.52;;;3.85;;
78312;SDS011;67568;47.438;21.408;2023-02-26T11:31:55;7.32;;;3.58;;
78312;SDS011;67568;47.438;21.408;2023-02-26T11:34:26;10.23;;;4.10;;
78312;SDS011;67568;47.438;21.408;2023-02-26T11:36:56;8.10;;;4.10;;
78312;SDS011;67568;47.438;21.408;2023-02-26T11:39:28;8.40;;;3.80;;
78312;SDS011;67568;47.438;21.408;2023-02-26T11:41:59;8.35;;;3.97;;
78312;SDS011;67568;47.438;21.408;2023-02-26T11:47:01;9.38;;;3.80;;
78312;SDS011;67568;47.438;21.408;2023-02-26T11:49:32;7.68;;;3.95;;
78312;SDS011;67568;47.438;21.408;2023-02-26T11:54:33;7.90;;;3.65;;
78312;SDS011;67568;47.438;21.408;2023-02-26T11:57:04;8.75;;;3.78;;
78312;SDS011;67568;47.438;21.408;2023-02-26T11:59:33;8.60;;;4.00;;
78312;SDS011;67568;47.438;21.408;2023-02-26T12:02:09;7.97;;;3.72;;
78312;SDS011;67568;47.438;21.408;2023-02-26T12:04:41;7.93;;;3.60;;
78312;SDS011;67568;47.438;21.408;2023-02-26T12:07:15;8.85;;;3.72;;
78312;SDS011;67568;47.438;21.408;2023-02-26T12:09:43;7.72;;;3.40;;
78312;SDS011;67568;47.438;21.408;2023-02-26T12:17:32;7.23;;;3.50;;
78312;SDS011;67568;47.438;21.408;2023-02-26T12:23:16;7.72;;;3.60;;
78312;SDS011;67568;47.438;21.408;2023-02-26T12:26:32;7.88;;;3.33;;
78312;SDS011;67568;47.438;21.408;2023-02-26T12:29:04;8.57;;;4.20;;
78312;SDS011;67568;47.438;21.408;2023-02-26T12:45:23;6.67;;;3.30;;
78312;SDS011;67568;47.438;21.408;2023-02-26T13:02:50;9.48;;;3.80;;
78312;SDS011;67568;47.438;21.408;2023-02-26T13:10:56;6.93;;;3.22;;
78312;SDS011;67568;47.438;21.408;2023-02-26T13:18:57;8.50;;;3.80;;
78312;SDS011;67568;47.438;21.408;2023-02-26T13:21:42;8.10;;;3.63;;
78312;SDS011;67568;47.438;21.408;2023-02-26T13:24:19;6.15;;;2.85;;
78312;SDS011;67568;47.438;21.408;2023-02-26T13:27:05;9.20;;;3.50;;
78312;SDS011;67568;47.438;21.408;2023-02-26T13:29:36;8.43;;;3.40;;
78312;SDS011;67568;47.438;21.408;2023-02-26T13:32:17;6.75;;;2.88;;
78312;SDS011;67568;47.438;21.408;2023-02-26T13:34:51;6.85;;;3.20;;
78312;SDS011;67568;47.438;21.408;2023-02-26T13:37:39;6.70;;;3.10;;
78312;SDS011;67568;47.438;21.408;2023-02-26T13:42:54;7.30;;;2.90;;
78312;SDS011;67568;47.438;21.408;2023-02-26T13:45:35;6.65;;;2.97;;
78312;SDS011;67568;47.438;21.408;2023-02-26T14:01:54;6.82;;;2.70;;
78312;SDS011;67568;47.438;21.408;2023-02-26T14:04:32;7.55;;;2.80;;
78312;SDS011;67568;47.438;21.408;2023-02-26T14:13:06;5.78;;;2.53;;
78312;SDS011;67568;47.438;21.408;2023-02-26T14:15:41;5.13;;;2.53;;
78312;SDS011;67568;47.438;21.408;2023-02-26T14:24:04;6.38;;;2.55;;
78312;SDS011;67568;47.438;21.408;2023-02-26T14:26:36;10.07;;;3.95;;
78312;SDS011;67568;47.438;21.408;2023-02-26T14:29:15;6.07;;;2.70;;
78312;SDS011;67568;47.438;21.408;2023-02-26T14:32:04;6.60;;;2.80;;
78312;SDS011;67568;47.438;21.408;2023-02-26T14:34:51;8.30;;;3.10;;
78312;SDS011;67568;47.438;21.408;2023-02-26T14:37:21;5.55;;;2.47;;
78312;SDS011;67568;47.438;21.408;2023-02-26T14:42:47;6.93;;;2.97;;
78312;SDS011;67568;47.438;21.408;2023-02-26T14:45:38;6.75;;;2.40;;
78312;SDS011;67568;47.438;21.408;2023-02-26T14:48:12;7.47;;;2.50;;
78312;SDS011;67568;47.438;21.408;2023-02-26T14:56:17;4.70;;;2.30;;
78312;SDS011;67568;47.438;21.408;2023-02-26T15:01:35;6.43;;;2.63;;
78312;SDS011;67568;47.438;21.408;2023-02-26T15:06:49;7.57;;;3.10;;
78312;SDS011;67568;47.438;21.408;2023-02-26T15:09:43;5.65;;;2.42;;
78312;SDS011;67568;47.438;21.408;2023-02-26T15:23:53;5.43;;;1.98;;
78312;SDS011;67568;47.438;21.408;2023-02-26T15:26:23;5.38;;;2.20;;
78312;SDS011;67568;47.438;21.408;2023-02-26T15:28:54;6.10;;;2.30;;
78312;SDS011;67568;47.438;21.408;2023-02-26T15:34:30;7.07;;;2.67;;
78312;SDS011;67568;47.438;21.408;2023-02-26T15:36:56;7.97;;;2.90;;
78312;SDS011;67568;47.438;21.408;2023-02-26T15:39:23;7.18;;;2.50;;
78312;SDS011;67568;47.438;21.408;2023-02-26T15:41:50;6.33;;;2.77;;
78312;SDS011;67568;47.438;21.408;2023-02-26T15:44:28;7.60;;;3.08;;
78312;SDS011;67568;47.438;21.408;2023-02-26T15:46:59;5.97;;;2.55;;
78312;SDS011;67568;47.438;21.408;2023-02-26T15:49:35;7.93;;;3.25;;
78312;SDS011;67568;47.438;21.408;2023-02-26T15:52:07;9.07;;;3.85;;
78312;SDS011;67568;47.438;21.408;2023-02-26T15:54:43;8.80;;;3.10;;
78312;SDS011;67568;47.438;21.408;2023-02-26T15:57:13;7.05;;;3.13;;
78312;SDS011;67568;47.438;21.408;2023-02-26T15:59:45;7.85;;;3.38;;
78312;SDS011;67568;47.438;21.408;2023-02-26T16:02:15;6.60;;;3.00;;
78312;SDS011;67568;47.438;21.408;2023-02-26T16:04:45;6.82;;;2.40;;
78312;SDS011;67568;47.438;21.408;2023-02-26T16:07:12;6.97;;;2.70;;
78312;SDS011;67568;47.438;21.408;2023-02-26T16:09:44;8.25;;;3.28;;
78312;SDS011;67568;47.438;21.408;2023-02-26T16:12:14;7.28;;;3.10;;
78312;SDS011;67568;47.438;21.408;2023-02-26T16:14:51;8.10;;;3.45;;
78312;SDS011;67568;47.438;21.408;2023-02-26T16:17:26;7.68;;;3.15;;
78312;SDS011;67568;47.438;21.408;2023-02-26T16:19:56;7.53;;;3.30;;
78312;SDS011;67568;47.438;21.408;2023-02-26T16:28:00;6.95;;;3.20;;
78312;SDS011;67568;47.438;21.408;2023-02-26T16:30:35;7.22;;;2.85;;
78312;SDS011;67568;47.438;21.408;2023-02-26T16:33:04;7.17;;;2.90;;
78312;SDS011;67568;47.438;21.408;2023-02-26T16:35:38;7.78;;;2.95;;
78312;SDS011;67568;47.438;21.408;2023-02-26T16:38:31;8.15;;;3.10;;
78312;SDS011;67568;47.438;21.408;2023-02-26T16:41:05;7.32;;;3.05;;
78312;SDS011;67568;47.438;21.408;2023-02-26T16:43:39;6.68;;;2.78;;
78312;SDS011;67568;47.438;21.408;2023-02-26T16:46:12;8.13;;;2.80;;
78312;SDS011;67568;47.438;21.408;2023-02-26T16:51:16;7.40;;;2.97;;
78312;SDS011;67568;47.438;21.408;2023-02-26T16:53:56;6.95;;;2.78;;
78312;SDS011;67568;47.438;21.408;2023-02-26T16:56:29;7.10;;;3.17;;
78312;SDS011;67568;47.438;21.408;2023-02-26T17:02:08;8.60;;;3.28;;
78312;SDS011;67568;47.438;21.408;2023-02-26T17:04:43;9.63;;;2.92;;
78312;SDS011;67568;47.438;21.408;2023-02-26T17:07:15;6.10;;;2.80;;
78312;SDS011;67568;47.438;21.408;2023-02-26T17:09:59;8.00;;;3.33;;
78312;SDS011;67568;47.438;21.408;2023-02-26T17:12:44;6.60;;;2.50;;
78312;SDS011;67568;47.438;21.408;2023-02-26T17:15:17;8.73;;;2.80;;
78312;SDS011;67568;47.438;21.408;2023-02-26T17:17:48;9.20;;;2.85;;
78312;SDS011;67568;47.438;21.408;2023-02-26T17:20:15;6.25;;;2.40;;
78312;SDS011;67568;47.438;21.408;2023-02-26T17:22:42;8.98;;;2.90;;
78312;SDS011;67568;47.438;21.408;2023-02-26T17:25:13;5.83;;;2.57;;
78312;SDS011;67568;47.438;21.408;2023-02-26T17:27:42;8.82;;;3.05;;
78312;SDS011;67568;47.438;21.408;2023-02-26T17:30:10;8.90;;;2.33;;
78312;SDS011;67568;47.438;21.408;2023-02-26T17:32:39;8.45;;;3.30;;
78312;SDS011;67568;47.438;21.408;2023-02-26T17:35:07;9.85;;;3.80;;
78312;SDS011;67568;47.438;21.408;2023-02-26T17:37:34;8.13;;;2.73;;
78312;SDS011;67568;47.438;21.408;2023-02-26T17:40:01;9.15;;;3.78;;
78312;SDS011;67568;47.438;21.408;2023-02-26T17:42:32;8.60;;;3.47;;
78312;SDS011;67568;47.438;21.408;2023-02-26T17:45:00;8.70;;;3.72;;
78312;SDS011;67568;47.438;21.408;2023-02-26T17:47:27;10.93;;;3.35;;
78312;SDS011;67568;47.438;21.408;2023-02-26T17:49:54;15.57;;;5.47;;
78312;SDS011;67568;47.438;21.408;2023-02-26T17:52:20;9.52;;;4.10;;
78312;SDS011;67568;47.438;21.408;2023-02-26T17:54:50;12.68;;;4.78;;
78312;SDS011;67568;47.438;21.408;2023-02-26T17:57:20;7.20;;;3.30;;
78312;SDS011;67568;47.438;21.408;2023-02-26T17:59:47;8.00;;;3.80;;